Naples, FL

9:04 AM EDT on September 30, 2014 (GMT -0400)
Foxfire | Change Station
CLOSE
Current Station
Personal Weather Station
Location: Naples, FL
Elevation: 40 ft
Nearby Weather Stations

Elev 40 ft 26.14 °N, 81.75 °W | Updated 6 minutes ago

Scattered Clouds
Scattered Clouds
80.1 °F
Feels Like 87 °F
N
0.0
Wind Variable Wind from West

Today
High -- | Low -- °F
--% Chance of Precip.
Yesterday
High -- | Low -- °F
Precip. -- in
7:19 AM 7:14 PM
Waxing Crescent, 36% visible
Pressure 29.87 in
Visibility 10.0 miles
Clouds Scattered Clouds 2000 ft
Heat Index 87 °F
Dew Point 79 °F
Humidity 95%
Rainfall 0.03 in
Snow Depth Not available.
UV 1 out of 12
Pollen 3.20 out of 12
Air Quality Not available.
Flu Activity Not available.
METAR KAPF 301253Z 28006KT 10SM SCT020 29/24 A2987 RMK AO2 SLP114 T02890239

More Conditions Fewer Conditions

Pressure 29.87 in
Visibility 10.0 miles
Clouds Scattered Clouds 2000 ft
Heat Index 87 °F
Dew Point 79 °F
Humidity 95%
Rainfall 0.03 in
Snow Depth Not available.
UV 1 out of 12
Pollen 3.20 out of 12
Air Quality Not available.
Flu Activity Not available.
METAR KAPF 301253Z 28006KT 10SM SCT020 29/24 A2987 RMK AO2 SLP114 T02890239

More Conditions Fewer Conditions

10-Day Weather Forecast

Almanac

Astronomy

Sep. 30, 2014 Rise Set
Actual Time 7:19 AM EDT 7:14 PM EDT
Civil Twilight 6:56 AM EDT 7:37 PM EDT
Nautical Twilight 6:29 AM EDT 8:04 PM EDT
Astronomical Twilight 6:02 AM EDT 8:31 PM EDT
Moon 1:00 PM EDT No Moon Set
Length of Visible Light 12h 41m
Length of Day
11h 55m
Tomorrow will be 1m 31s shorter.
Waxing Crescent, 36% of the Moon is Illuminated
Today
Waxing Crescent
Oct 1
First Quarter
Oct 8
Full
Oct 15
Last Quarter
Oct 23
New

Today's Extremes

State Highs State Lows

Community

WunderPhotos

Upload Photos

1,757,628 photos uploaded!

Nearby

Snow Depth

Station Depth Elevation
No new snow has been reported.

Earthquake Activity

City Distance Mag. Time & Date
No recent earthquake activity has been reported nearby.
Minimum magnitude displayed is 2.5.

Coastal Water Temperatures

Place Temperature
Naples, FL 86.0 °F

Nearby Weather Stations